Time;durP1;ratioP1;P1;durP2;ratioP2;P2;SDS_P1;SDS_P2;PMS_P1;PMS_P2;Temp;Humidity;BMP_temperature;BMP_pressure;BME280_temperature;BME280_humidity;BME280_pressure;Samples;Min_cycle;Max_cycle;Signal;HPM_P1;HPM_P2
2023/12/09 00:00:10;;;;;;;23.15;10.93;;;7.30;99.90;;;;;;5077075;28;20566;-88
2023/12/09 00:02:35;;;;;;;22.25;10.95;;;7.30;99.90;;;;;;5074477;28;20025;-89
2023/12/09 00:05:02;;;;;;;24.27;10.77;;;7.30;99.90;;;;;;5086770;28;20157;-88
2023/12/09 00:07:27;;;;;;;24.60;10.48;;;7.30;99.90;;;;;;5076369;28;20017;-87
2023/12/09 00:09:53;;;;;;;22.95;10.38;;;7.30;99.90;;;;;;5073076;28;20505;-88
2023/12/09 00:12:18;;;;;;;24.17;10.27;;;7.30;99.90;;;;;;5080381;28;20107;-88
2023/12/09 00:14:44;;;;;;;20.83;9.15;;;7.30;99.90;;;;;;5077195;28;20029;-87
2023/12/09 00:17:09;;;;;;;21.15;9.65;;;7.30;99.90;;;;;;5076293;28;20031;-88
2023/12/09 00:19:35;;;;;;;24.52;9.85;;;7.30;99.90;;;;;;5065326;28;20037;-88
2023/12/09 00:22:00;;;;;;;23.27;10.13;;;7.30;99.90;;;;;;5080672;28;20035;-88
2023/12/09 00:24:26;;;;;;;19.17;9.07;;;7.30;99.90;;;;;;5077605;28;20032;-88
2023/12/09 00:26:52;;;;;;;20.42;10.18;;;7.30;99.90;;;;;;5079481;28;20076;-88
2023/12/09 00:29:17;;;;;;;18.45;9.18;;;7.30;99.90;;;;;;5078657;28;20020;-88
2023/12/09 00:31:43;;;;;;;20.92;9.75;;;7.30;99.90;;;;;;5074160;28;20052;-87
2023/12/09 00:34:09;;;;;;;18.90;8.57;;;7.30;99.90;;;;;;5085004;28;20035;-88
2023/12/09 00:36:34;;;;;;;19.92;9.32;;;7.30;99.90;;;;;;5074686;28;20029;-88
2023/12/09 00:39:00;;;;;;;18.65;9.43;;;7.30;99.90;;;;;;5083715;28;20016;-88
2023/12/09 00:41:26;;;;;;;19.77;8.75;;;7.30;99.90;;;;;;5084334;28;20064;-87
2023/12/09 00:43:51;;;;;;;21.52;9.50;;;7.30;99.90;;;;;;5078350;28;20477;-88
2023/12/09 00:46:17;;;;;;;20.85;9.10;;;7.30;99.90;;;;;;5077349;28;20078;-88
2023/12/09 00:48:43;;;;;;;15.98;8.55;;;7.30;99.90;;;;;;5075903;28;20066;-88
2023/12/09 00:51:09;;;;;;;16.90;8.13;;;7.30;99.90;;;;;;5079658;28;20516;-87
2023/12/09 00:53:34;;;;;;;17.25;8.23;;;7.30;99.90;;;;;;5074485;28;20025;-88
2023/12/09 00:56:00;;;;;;;16.20;8.43;;;7.30;99.90;;;;;;5073492;28;20048;-89
2023/12/09 00:58:26;;;;;;;17.60;8.38;;;7.30;99.90;;;;;;5079761;28;20017;-88
2023/12/09 01:00:52;;;;;;;19.70;7.93;;;7.30;99.90;;;;;;5085274;28;20024;-89
2023/12/09 01:03:17;;;;;;;18.77;8.70;;;7.30;99.90;;;;;;5079318;28;20027;-88
2023/12/09 01:05:43;;;;;;;18.48;8.65;;;7.30;99.90;;;;;;5072395;28;20024;-88
2023/12/09 01:08:09;;;;;;;18.38;8.70;;;7.30;99.90;;;;;;5077800;28;20173;-88
2023/12/09 01:10:34;;;;;;;19.60;9.05;;;7.30;99.90;;;;;;5078126;28;20021;-89
2023/12/09 01:13:00;;;;;;;18.83;8.63;;;7.30;99.90;;;;;;5088151;28;20035;-88
2023/12/09 01:15:25;;;;;;;16.90;7.95;;;7.30;99.90;;;;;;5081455;28;20020;-89
2023/12/09 01:17:51;;;;;;;16.13;8.68;;;7.30;99.90;;;;;;5069312;28;20028;-89
2023/12/09 01:20:16;;;;;;;19.85;9.18;;;7.30;99.90;;;;;;5081252;28;20033;-88
2023/12/09 01:22:42;;;;;;;15.45;7.90;;;7.30;99.90;;;;;;5075880;28;20016;-88
2023/12/09 01:25:08;;;;;;;17.20;9.18;;;7.30;99.90;;;;;;5074879;28;20566;-89
2023/12/09 01:27:33;;;;;;;19.45;9.35;;;7.30;99.90;;;;;;5078311;28;20111;-88
2023/12/09 01:29:59;;;;;;;19.02;8.55;;;7.30;99.90;;;;;;5076680;28;20048;-88
2023/12/09 01:32:24;;;;;;;16.83;8.88;;;7.30;99.90;;;;;;5071890;28;20112;-88
2023/12/09 01:34:50;;;;;;;16.90;8.13;;;7.30;99.90;;;;;;5083043;28;20036;-87
2023/12/09 01:37:15;;;;;;;18.55;8.25;;;7.30;99.90;;;;;;5079725;28;26081;-88
2023/12/09 01:39:41;;;;;;;15.00;8.45;;;7.30;99.90;;;;;;5066923;28;20020;-88
2023/12/09 01:42:08;;;;;;;17.35;8.05;;;7.30;99.90;;;;;;5071948;28;20033;-88
2023/12/09 01:44:33;;;;;;;15.23;8.35;;;7.30;99.90;;;;;;5071258;28;20464;-88
2023/12/09 01:47:00;;;;;;;14.57;7.40;;;7.30;99.90;;;;;;5077045;28;20013;-87
2023/12/09 01:49:25;;;;;;;17.65;8.77;;;7.30;99.90;;;;;;5082995;28;20032;-88
2023/12/09 01:51:52;;;;;;;17.33;8.05;;;7.30;99.90;;;;;;5093332;28;20090;-88
2023/12/09 01:54:17;;;;;;;15.38;8.20;;;7.30;99.90;;;;;;5079401;28;20051;-88
2023/12/09 01:56:43;;;;;;;17.52;8.65;;;7.30;99.90;;;;;;5068632;28;20152;-87
2023/12/09 01:59:09;;;;;;;17.02;8.20;;;7.30;99.90;;;;;;5072426;28;20025;-88
2023/12/09 02:01:35;;;;;;;16.48;9.02;;;7.30;99.90;;;;;;5067458;28;20028;-89
2023/12/09 02:04:02;;;;;;;14.20;7.50;;;7.30;99.90;;;;;;5077112;28;20051;-88
2023/12/09 02:06:28;;;;;;;16.55;7.88;;;7.30;99.90;;;;;;5073279;28;20023;-89
2023/12/09 02:08:54;;;;;;;15.40;8.43;;;7.30;99.90;;;;;;5074688;28;20021;-88
2023/12/09 02:11:31;;;;;;;17.60;7.97;;;7.30;99.90;;;;;;5083734;28;20036;-88
2023/12/09 02:14:01;;;;;;;15.27;7.70;;;7.30;99.90;;;;;;5074589;28;20028;-88
2023/12/09 02:16:38;;;;;;;16.20;8.48;;;7.30;99.90;;;;;;5070149;28;20025;-88
2023/12/09 02:19:06;;;;;;;19.55;9.10;;;7.30;99.90;;;;;;5087458;28;20103;-87
2023/12/09 02:21:58;;;;;;;20.60;8.85;;;7.30;99.90;;;;;;5070757;28;20025;-88
2023/12/09 02:24:25;;;;;;;20.30;9.30;;;7.30;99.90;;;;;;5073475;28;20358;-88
2023/12/09 02:26:52;;;;;;;16.85;8.93;;;7.30;99.90;;;;;;5082125;28;20568;-89
2023/12/09 02:29:19;;;;;;;17.48;9.20;;;7.30;99.90;;;;;;5077878;28;20028;-89
2023/12/09 02:31:47;;;;;;;20.83;9.40;;;7.30;99.90;;;;;;5079240;28;20023;-88
2023/12/09 02:34:14;;;;;;;19.17;8.75;;;7.30;99.90;;;;;;5085797;28;20020;-88
2023/12/09 02:36:43;;;;;;;19.98;8.73;;;7.30;99.90;;;;;;5063548;28;20486;-90
2023/12/09 02:39:12;;;;;;;17.48;8.43;;;7.30;99.90;;;;;;5083531;28;20030;-87
2023/12/09 02:41:39;;;;;;;19.52;9.73;;;7.30;99.90;;;;;;5076928;28;20032;-88
2023/12/09 02:44:05;;;;;;;20.27;9.07;;;7.30;99.90;;;;;;5072968;28;20103;-87
2023/12/09 02:46:30;;;;;;;19.02;9.25;;;7.30;99.90;;;;;;5076757;28;20430;-89
2023/12/09 02:48:59;;;;;;;17.02;8.93;;;7.30;99.90;;;;;;5081061;28;20421;-88
2023/12/09 02:51:25;;;;;;;23.83;10.45;;;7.30;99.90;;;;;;5062202;28;20033;-87
2023/12/09 02:53:50;;;;;;;19.40;9.45;;;7.30;99.90;;;;;;5084469;28;20023;-87
2023/12/09 02:56:16;;;;;;;24.23;10.07;;;7.30;99.90;;;;;;5081167;28;20020;-88
2023/12/09 02:58:41;;;;;;;19.42;8.98;;;7.30;99.90;;;;;;5077046;28;20024;-88
2023/12/09 03:01:07;;;;;;;20.58;8.75;;;7.30;99.90;;;;;;5069793;28;20025;-90
2023/12/09 03:03:32;;;;;;;15.38;7.93;;;7.30;99.90;;;;;;5084933;28;20028;-87
2023/12/09 03:05:58;;;;;;;17.83;9.50;;;7.30;99.90;;;;;;5073524;28;20036;-89
2023/12/09 03:08:23;;;;;;;22.17;9.15;;;7.30;99.90;;;;;;5072969;28;20012;-88
2023/12/09 03:10:49;;;;;;;18.58;8.00;;;7.30;99.90;;;;;;5078822;28;20398;-88
2023/12/09 03:13:15;;;;;;;19.27;8.55;;;7.30;99.90;;;;;;5081948;28;20047;-87
2023/12/09 03:15:40;;;;;;;14.85;7.57;;;7.30;99.90;;;;;;5077386;28;20033;-88
2023/12/09 03:18:06;;;;;;;21.17;7.88;;;7.30;99.90;;;;;;5084060;28;20024;-87
2023/12/09 03:20:31;;;;;;;17.75;7.72;;;7.30;99.90;;;;;;5075344;28;20031;-87
2023/12/09 03:22:57;;;;;;;14.85;7.40;;;7.30;99.90;;;;;;5080731;28;20024;-88
2023/12/09 03:25:22;;;;;;;19.42;8.13;;;7.30;99.90;;;;;;5062509;28;20024;-88
2023/12/09 03:27:48;;;;;;;19.33;7.05;;;7.30;99.90;;;;;;5082737;28;20024;-87
2023/12/09 03:30:13;;;;;;;14.02;7.03;;;7.30;99.90;;;;;;5072428;28;20055;-88
2023/12/09 03:32:39;;;;;;;16.85;7.10;;;7.30;99.90;;;;;;5072878;28;20513;-87
2023/12/09 03:35:05;;;;;;;18.25;7.60;;;7.30;99.90;;;;;;5072617;28;20025;-88
2023/12/09 03:37:30;;;;;;;15.43;6.38;;;7.30;99.90;;;;;;5073009;28;20020;-89
2023/12/09 03:39:56;;;;;;;13.82;6.80;;;7.30;99.90;;;;;;5074205;28;20061;-88
2023/12/09 03:42:21;;;;;;;14.40;6.80;;;7.30;99.90;;;;;;5076209;28;20036;-88
2023/12/09 03:44:47;;;;;;;14.63;6.13;;;7.30;99.90;;;;;;5072451;28;20029;-88
2023/12/09 03:47:13;;;;;;;14.63;6.55;;;7.30;99.90;;;;;;5084793;28;20043;-88
2023/12/09 03:49:38;;;;;;;12.63;6.47;;;7.30;99.90;;;;;;5076614;28;20492;-88
2023/12/09 03:52:04;;;;;;;11.90;6.00;;;7.30;99.90;;;;;;5077632;28;20025;-88
2023/12/09 03:54:29;;;;;;;15.50;6.03;;;7.30;99.90;;;;;;5074602;28;20028;-88
2023/12/09 03:56:55;;;;;;;16.75;6.20;;;7.30;99.90;;;;;;5076857;28;20494;-88
2023/12/09 03:59:20;;;;;;;15.90;6.80;;;7.30;99.90;;;;;;5079213;28;20013;-89
2023/12/09 04:01:48;;;;;;;16.40;5.53;;;7.30;99.90;;;;;;5079231;28;20039;-88
2023/12/09 04:04:14;;;;;;;15.57;6.22;;;7.30;99.90;;;;;;5078499;28;20024;-88
2023/12/09 04:06:40;;;;;;;12.65;5.80;;;7.30;99.90;;;;;;5080234;28;20020;-87
2023/12/09 04:09:05;;;;;;;14.10;5.45;;;7.30;99.90;;;;;;5081521;28;20028;-88
2023/12/09 04:11:31;;;;;;;14.07;6.32;;;7.30;99.90;;;;;;5080334;28;20021;-87
2023/12/09 04:13:56;;;;;;;13.90;5.40;;;7.30;99.90;;;;;;5080091;28;20375;-87
2023/12/09 04:16:22;;;;;;;13.30;6.30;;;7.30;99.90;;;;;;5081405;28;20077;-88
2023/12/09 04:18:47;;;;;;;18.42;6.00;;;7.30;99.90;;;;;;5080496;28;20025;-88
2023/12/09 04:21:13;;;;;;;12.93;5.53;;;7.30;99.90;;;;;;5072377;28;20024;-88
2023/12/09 04:23:38;;;;;;;16.77;5.82;;;7.30;99.90;;;;;;5081398;28;20020;-88
2023/12/09 04:26:04;;;;;;;13.40;6.28;;;7.30;99.90;;;;;;5075227;28;20020;-89
2023/12/09 04:28:30;;;;;;;15.80;5.50;;;7.30;99.90;;;;;;5081683;28;20658;-87
2023/12/09 04:30:55;;;;;;;10.43;5.00;;;7.30;99.90;;;;;;5071830;28;20028;-87
2023/12/09 04:33:21;;;;;;;13.13;6.10;;;7.30;99.90;;;;;;5084063;28;20031;-89
2023/12/09 04:35:47;;;;;;;8.38;4.95;;;7.30;99.90;;;;;;5077226;28;20447;-88
2023/12/09 04:38:12;;;;;;;8.88;5.03;;;7.30;99.90;;;;;;5076553;28;20016;-88
2023/12/09 04:40:38;;;;;;;9.43;4.45;;;7.30;99.90;;;;;;5076216;28;20020;-88
2023/12/09 04:43:04;;;;;;;10.93;5.40;;;7.30;99.90;;;;;;5083378;28;20492;-88
2023/12/09 04:45:29;;;;;;;9.43;5.10;;;7.30;99.90;;;;;;5085174;28;20540;-88
2023/12/09 04:47:55;;;;;;;12.98;5.68;;;7.30;99.90;;;;;;5082633;28;20020;-88
2023/12/09 04:50:21;;;;;;;8.60;4.72;;;7.30;99.90;;;;;;5077561;28;20478;-88
2023/12/09 04:52:46;;;;;;;11.05;4.95;;;7.30;99.90;;;;;;5079444;28;20059;-88
2023/12/09 04:55:12;;;;;;;8.50;4.50;;;7.30;99.90;;;;;;5078228;28;20123;-88
2023/12/09 04:57:37;;;;;;;10.90;5.15;;;7.30;99.90;;;;;;5072308;28;20032;-87
2023/12/09 05:00:05;;;;;;;7.57;4.57;;;7.30;99.90;;;;;;5065225;28;20589;-88
2023/12/09 05:02:31;;;;;;;8.10;4.43;;;7.30;99.90;;;;;;5075669;28;20012;-88
2023/12/09 05:04:56;;;;;;;8.50;4.68;;;7.30;99.90;;;;;;5074236;28;20031;-88
2023/12/09 05:07:25;;;;;;;9.75;4.85;;;7.30;99.90;;;;;;5084093;28;20024;-89
2023/12/09 05:09:52;;;;;;;10.60;4.82;;;7.30;99.90;;;;;;5081715;28;20017;-88
2023/12/09 05:12:18;;;;;;;11.75;4.82;;;7.30;99.90;;;;;;5071266;28;20061;-88
2023/12/09 05:14:43;;;;;;;10.07;4.07;;;7.30;99.90;;;;;;5077462;28;20063;-88
2023/12/09 05:17:09;;;;;;;10.10;4.65;;;7.30;99.90;;;;;;5084680;28;20048;-89
2023/12/09 05:19:35;;;;;;;12.57;5.00;;;7.30;99.90;;;;;;5074276;28;20023;-89
2023/12/09 05:22:00;;;;;;;12.20;5.07;;;7.30;99.90;;;;;;5079928;28;20031;-88
2023/12/09 05:24:26;;;;;;;10.73;4.40;;;7.30;99.90;;;;;;5075063;28;20118;-88
2023/12/09 05:26:51;;;;;;;10.35;4.47;;;7.30;99.90;;;;;;5083745;28;20040;-87
2023/12/09 05:29:17;;;;;;;8.63;5.03;;;7.30;99.90;;;;;;5072605;28;20529;-88
2023/12/09 05:31:42;;;;;;;10.80;5.10;;;7.30;99.90;;;;;;5084124;28;20538;-88
2023/12/09 05:34:08;;;;;;;14.75;5.40;;;7.30;99.90;;;;;;5074282;28;20479;-88
2023/12/09 05:36:36;;;;;;;12.65;4.85;;;7.30;99.90;;;;;;5073261;28;20024;-88
2023/12/09 05:39:02;;;;;;;11.80;4.75;;;7.30;99.90;;;;;;5065616;28;20025;-88
2023/12/09 05:41:28;;;;;;;10.60;4.90;;;7.30;99.90;;;;;;5082967;28;20016;-89
2023/12/09 05:43:53;;;;;;;11.82;4.80;;;7.30;99.90;;;;;;5074653;28;20031;-88
2023/12/09 05:46:19;;;;;;;11.05;4.47;;;7.30;99.90;;;;;;5062526;28;20012;-89
2023/12/09 05:48:45;;;;;;;12.18;5.07;;;7.30;99.90;;;;;;5076560;28;20086;-88
2023/12/09 05:51:11;;;;;;;12.43;4.32;;;7.30;99.90;;;;;;5074711;28;20021;-89
2023/12/09 05:53:36;;;;;;;10.00;5.10;;;7.30;99.90;;;;;;5079947;28;20028;-88
2023/12/09 05:56:02;;;;;;;9.35;4.00;;;7.40;99.90;;;;;;5077126;28;20502;-88
2023/12/09 05:58:27;;;;;;;13.70;5.20;;;7.30;99.90;;;;;;5074391;28;20035;-88
2023/12/09 06:00:53;;;;;;;10.60;4.30;;;7.30;99.90;;;;;;5069327;28;20028;-87
2023/12/09 06:03:18;;;;;;;10.48;4.38;;;7.30;99.90;;;;;;5072914;28;20013;-88
2023/12/09 06:05:44;;;;;;;15.88;4.63;;;7.30;99.90;;;;;;5068779;28;20444;-88
2023/12/09 06:08:10;;;;;;;13.68;5.35;;;7.30;99.90;;;;;;5076660;28;20023;-88
2023/12/09 06:10:35;;;;;;;10.48;4.47;;;7.40;99.90;;;;;;5079206;28;20035;-88
2023/12/09 06:13:01;;;;;;;12.15;5.07;;;7.30;99.90;;;;;;5075451;28;20033;-89
2023/12/09 06:15:26;;;;;;;12.48;5.05;;;7.30;99.90;;;;;;5076033;28;20684;-88
2023/12/09 06:17:52;;;;;;;11.15;4.80;;;7.30;99.90;;;;;;5077331;28;20027;-88
2023/12/09 06:20:17;;;;;;;16.65;5.00;;;7.30;99.90;;;;;;5074223;28;20071;-88
2023/12/09 06:22:43;;;;;;;12.05;4.93;;;7.40;99.90;;;;;;5077830;28;20024;-88
2023/12/09 06:25:08;;;;;;;14.70;5.45;;;7.40;99.90;;;;;;5085467;28;20035;-89
2023/12/09 06:27:35;;;;;;;12.55;4.70;;;7.30;99.90;;;;;;5080533;28;20031;-88
2023/12/09 06:30:01;;;;;;;14.00;5.43;;;7.30;99.90;;;;;;5080230;28;20028;-88
2023/12/09 06:32:26;;;;;;;13.05;5.25;;;7.30;99.90;;;;;;5079653;28;20040;-90
2023/12/09 06:34:52;;;;;;;9.38;4.85;;;7.30;99.90;;;;;;5080761;28;20084;-87
2023/12/09 06:37:17;;;;;;;11.63;5.13;;;7.30;99.90;;;;;;5072912;28;20021;-89
2023/12/09 06:39:43;;;;;;;13.38;4.82;;;7.30;99.90;;;;;;5066112;28;20017;-89
2023/12/09 06:42:09;;;;;;;13.13;5.65;;;7.30;99.90;;;;;;5082600;28;20020;-88
2023/12/09 06:44:34;;;;;;;12.15;4.97;;;7.40;99.90;;;;;;5077032;28;20021;-88
2023/12/09 06:47:00;;;;;;;14.95;5.45;;;7.30;99.90;;;;;;5083475;28;20481;-88
2023/12/09 06:49:25;;;;;;;10.27;4.30;;;7.40;99.90;;;;;;5070990;28;20024;-87
2023/12/09 06:51:51;;;;;;;10.20;4.90;;;7.40;99.90;;;;;;5073913;28;20028;-88
2023/12/09 06:54:17;;;;;;;12.75;4.80;;;7.30;99.90;;;;;;5083460;28;20036;-89
2023/12/09 06:56:42;;;;;;;10.63;4.32;;;7.30;99.90;;;;;;5076657;28;20440;-89
2023/12/09 06:59:08;;;;;;;15.40;6.03;;;7.40;99.90;;;;;;5076729;28;20624;-88
2023/12/09 07:01:34;;;;;;;12.40;4.88;;;7.40;99.90;;;;;;5068076;28;20056;-90
2023/12/09 07:04:00;;;;;;;13.98;5.28;;;7.30;99.90;;;;;;5072797;28;20020;-90
2023/12/09 07:06:27;;;;;;;17.15;5.20;;;7.30;99.90;;;;;;5077001;28;20421;-91
2023/12/09 07:08:53;;;;;;;10.85;4.82;;;7.30;99.90;;;;;;5068467;28;20027;-88
2023/12/09 07:11:20;;;;;;;12.20;5.00;;;7.40;99.90;;;;;;5071894;28;20453;-89
2023/12/09 07:13:46;;;;;;;11.40;4.25;;;7.30;99.90;;;;;;5068960;28;20433;-88
2023/12/09 07:16:13;;;;;;;17.30;5.03;;;7.30;99.90;;;;;;5070324;28;20033;-88
2023/12/09 07:18:43;;;;;;;11.70;3.80;;;7.30;99.90;;;;;;5076851;28;20028;-88
2023/12/09 07:21:09;;;;;;;14.20;4.85;;;7.30;99.90;;;;;;5077513;28;20035;-89
2023/12/09 07:23:35;;;;;;;14.75;5.78;;;7.30;99.90;;;;;;5075013;28;20453;-89
2023/12/09 07:26:02;;;;;;;11.10;4.78;;;7.30;99.90;;;;;;5076262;28;20012;-88
2023/12/09 07:28:29;;;;;;;13.57;5.18;;;7.30;99.90;;;;;;5075855;28;20021;-88
2023/12/09 07:30:54;;;;;;;11.52;4.78;;;7.30;99.90;;;;;;5076478;28;20020;-89
2023/12/09 07:33:20;;;;;;;16.15;5.65;;;7.30;99.90;;;;;;5071497;28;20502;-88
2023/12/09 07:35:46;;;;;;;12.18;4.95;;;7.30;99.90;;;;;;5068133;28;20181;-88
2023/12/09 07:38:11;;;;;;;12.55;4.93;;;7.30;99.90;;;;;;5067699;28;20539;-88
2023/12/09 07:40:37;;;;;;;13.85;5.50;;;7.30;99.90;;;;;;5075176;28;20836;-88
2023/12/09 07:43:03;;;;;;;13.63;5.00;;;7.40;99.90;;;;;;5067562;28;20021;-88
2023/12/09 07:45:29;;;;;;;14.95;5.65;;;7.30;99.90;;;;;;5068989;28;20023;-88
2023/12/09 07:47:54;;;;;;;15.30;5.68;;;7.30;99.90;;;;;;5069038;28;20012;-89
2023/12/09 07:50:20;;;;;;;11.50;4.70;;;7.30;99.90;;;;;;5063427;28;20025;-89
2023/12/09 07:52:45;;;;;;;20.88;5.90;;;7.30;99.90;;;;;;5067785;28;20497;-89
2023/12/09 07:55:11;;;;;;;20.10;5.97;;;7.40;99.90;;;;;;5064724;28;20019;-89
2023/12/09 07:57:36;;;;;;;24.42;5.57;;;7.40;99.90;;;;;;5069980;28;20108;-88
2023/12/09 08:00:03;;;;;;;16.38;5.72;;;7.30;99.90;;;;;;5063507;28;20032;-89
2023/12/09 08:02:29;;;;;;;15.38;5.47;;;7.30;99.90;;;;;;5071801;28;20042;-89
2023/12/09 08:04:55;;;;;;;14.38;5.20;;;7.40;99.90;;;;;;5071620;28;20698;-89
2023/12/09 08:07:21;;;;;;;18.65;6.05;;;7.40;99.90;;;;;;5069031;28;20375;-89
2023/12/09 08:09:46;;;;;;;16.05;5.65;;;7.30;99.90;;;;;;5073116;28;20040;-88
2023/12/09 08:12:12;;;;;;;16.05;5.75;;;7.40;99.90;;;;;;5088117;28;20099;-87
2023/12/09 08:14:37;;;;;;;20.00;6.97;;;7.40;99.90;;;;;;5076400;28;20028;-88
2023/12/09 08:17:03;;;;;;;17.92;6.35;;;7.40;99.90;;;;;;5074745;28;20016;-89
2023/12/09 08:19:28;;;;;;;20.80;6.60;;;7.40;99.90;;;;;;5072426;28;20025;-88
2023/12/09 08:21:54;;;;;;;19.13;7.13;;;7.40;99.90;;;;;;5088813;28;20029;-90
2023/12/09 08:24:20;;;;;;;19.92;6.47;;;7.40;99.90;;;;;;5077297;28;20680;-88
2023/12/09 08:26:45;;;;;;;20.45;6.80;;;7.40;99.90;;;;;;5083515;28;20028;-88
2023/12/09 08:29:14;;;;;;;19.35;7.40;;;7.40;99.90;;;;;;5076894;28;20087;-88
2023/12/09 08:31:40;;;;;;;17.05;6.82;;;7.40;99.90;;;;;;5076782;28;20028;-89
2023/12/09 08:34:05;;;;;;;14.88;6.30;;;7.40;99.90;;;;;;5084674;28;20078;-87
2023/12/09 08:36:31;;;;;;;20.38;6.90;;;7.40;99.90;;;;;;5076887;28;20016;-88
2023/12/09 08:38:56;;;;;;;26.02;7.47;;;7.40;99.90;;;;;;5070193;28;20028;-89
2023/12/09 08:41:22;;;;;;;26.33;7.55;;;7.40;99.90;;;;;;5079489;28;20024;-89
2023/12/09 08:43:52;;;;;;;24.40;7.72;;;7.40;99.90;;;;;;5075206;28;20115;-88
2023/12/09 08:46:18;;;;;;;18.65;6.88;;;7.40;99.90;;;;;;5070389;28;20044;-89
2023/12/09 08:48:44;;;;;;;16.35;6.63;;;7.40;99.90;;;;;;5072664;28;20108;-89
2023/12/09 08:51:10;;;;;;;21.88;7.47;;;7.40;99.90;;;;;;5073302;28;20688;-88
2023/12/09 08:53:36;;;;;;;22.42;7.38;;;7.40;99.90;;;;;;5080133;28;20052;-88
2023/12/09 08:56:01;;;;;;;16.83;6.85;;;7.30;99.90;;;;;;5077964;28;20035;-89
2023/12/09 08:58:27;;;;;;;18.63;6.70;;;7.40;99.90;;;;;;5079858;28;20591;-87
2023/12/09 09:00:52;;;;;;;19.08;6.45;;;7.40;99.90;;;;;;5072885;28;20017;-88
2023/12/09 09:03:18;;;;;;;22.63;7.18;;;7.40;99.90;;;;;;5074721;28;20024;-88
2023/12/09 09:05:43;;;;;;;18.52;7.13;;;7.40;99.90;;;;;;5079661;28;20028;-88
2023/12/09 09:08:09;;;;;;;18.75;7.07;;;7.40;99.90;;;;;;5075320;28;20017;-89
2023/12/09 09:10:34;;;;;;;19.25;6.75;;;7.40;99.90;;;;;;5076929;28;20035;-88
2023/12/09 09:13:00;;;;;;;20.80;7.45;;;7.40;99.90;;;;;;5080690;28;20036;-86
2023/12/09 09:15:26;;;;;;;22.55;6.68;;;7.40;99.90;;;;;;5078967;28;20538;-88
2023/12/09 09:17:52;;;;;;;15.30;6.65;;;7.40;99.90;;;;;;5072942;28;20028;-88
2023/12/09 09:20:18;;;;;;;22.85;8.13;;;7.40;99.90;;;;;;5081155;28;20085;-89
2023/12/09 09:22:43;;;;;;;16.90;6.53;;;7.40;99.90;;;;;;5073240;28;20025;-88
2023/12/09 09:25:09;;;;;;;18.63;8.18;;;7.40;99.90;;;;;;5076511;28;20492;-89
2023/12/09 09:27:35;;;;;;;20.33;6.47;;;7.40;99.90;;;;;;5074008;28;20027;-89
2023/12/09 09:30:00;;;;;;;19.95;7.18;;;7.40;99.90;;;;;;5068890;28;20411;-89
2023/12/09 09:32:26;;;;;;;18.25;7.07;;;7.40;99.90;;;;;;5081110;28;20472;-88
2023/12/09 09:34:52;;;;;;;26.02;8.05;;;7.40;99.90;;;;;;5081456;28;20103;-89
2023/12/09 09:37:18;;;;;;;19.08;7.47;;;7.40;99.90;;;;;;5061695;28;20465;-88
2023/12/09 09:39:43;;;;;;;20.38;7.88;;;7.40;99.90;;;;;;5085081;28;20036;-89
2023/12/09 09:42:23;;;;;;;20.02;7.13;;;7.40;99.90;;;;;;5077391;28;20032;-88
2023/12/09 09:45:25;;;;;;;19.20;7.38;;;7.40;99.90;;;;;;5070202;28;20635;-88
2023/12/09 09:47:52;;;;;;;22.42;7.88;;;7.50;99.90;;;;;;5071240;28;20021;-88
2023/12/09 09:50:25;;;;;;;20.63;7.05;;;7.40;99.90;;;;;;5071826;28;20032;-88
2023/12/09 09:52:52;;;;;;;19.02;6.97;;;7.40;99.90;;;;;;5075629;28;20023;-88
2023/12/09 09:55:21;;;;;;;21.52;7.68;;;7.40;99.90;;;;;;5075513;28;20389;-89
2023/12/09 09:57:48;;;;;;;20.98;7.93;;;7.40;99.90;;;;;;5066874;28;20029;-88
2023/12/09 10:00:16;;;;;;;20.17;8.02;;;7.40;99.90;;;;;;5078027;28;20488;-88
2023/12/09 10:02:44;;;;;;;21.83;8.15;;;7.40;99.90;;;;;;5077301;28;20095;-89
2023/12/09 10:05:10;;;;;;;25.42;8.73;;;7.40;99.90;;;;;;5073642;28;20466;-89
2023/12/09 10:07:37;;;;;;;23.35;7.65;;;7.40;99.90;;;;;;5072495;28;20074;-89
2023/12/09 10:10:03;;;;;;;19.67;7.20;;;7.40;99.90;;;;;;5069221;28;20029;-89
2023/12/09 10:12:29;;;;;;;21.38;8.63;;;7.40;99.90;;;;;;5077282;28;20082;-89
2023/12/09 10:14:56;;;;;;;23.77;7.70;;;7.50;99.90;;;;;;5080563;28;20486;-88
2023/12/09 10:17:23;;;;;;;21.92;8.63;;;7.50;99.90;;;;;;5076289;28;20051;-89
2023/12/09 10:19:48;;;;;;;23.40;8.75;;;7.40;99.90;;;;;;5069930;28;20033;-88
2023/12/09 10:22:14;;;;;;;30.45;8.73;;;7.50;99.90;;;;;;5067930;28;20100;-88
2023/12/09 10:24:47;;;;;;;23.83;9.38;;;7.50;99.90;;;;;;5075647;28;20562;-88
2023/12/09 10:27:12;;;;;;;28.27;9.25;;;7.50;99.90;;;;;;5069864;28;20087;-88
2023/12/09 10:29:38;;;;;;;27.23;9.13;;;7.50;99.90;;;;;;5075112;28;20471;-88
2023/12/09 10:32:04;;;;;;;22.15;8.50;;;7.50;99.90;;;;;;5076217;28;20054;-88
2023/12/09 10:34:30;;;;;;;24.38;9.27;;;7.50;99.90;;;;;;5067004;28;20021;-88
2023/12/09 10:36:55;;;;;;;25.45;8.65;;;7.50;99.90;;;;;;5071974;28;20099;-89
2023/12/09 10:39:21;;;;;;;22.20;8.10;;;7.50;99.90;;;;;;5076105;28;20038;-88
2023/12/09 10:41:47;;;;;;;28.65;9.20;;;7.50;99.90;;;;;;5072551;28;20188;-88
2023/12/09 10:44:12;;;;;;;25.45;9.23;;;7.50;99.90;;;;;;5074139;28;20020;-88
2023/12/09 10:46:38;;;;;;;33.45;11.05;;;7.50;99.90;;;;;;5068213;28;20116;-88
2023/12/09 10:49:05;;;;;;;30.15;10.48;;;7.50;99.90;;;;;;5070076;28;20048;-89
2023/12/09 10:51:30;;;;;;;26.63;9.55;;;7.60;99.90;;;;;;5071452;28;20085;-89
2023/12/09 10:53:56;;;;;;;27.02;10.57;;;7.50;99.90;;;;;;5077763;28;20028;-88
2023/12/09 10:56:22;;;;;;;24.73;8.93;;;7.50;99.90;;;;;;5076404;28;20036;-89
2023/12/09 10:58:50;;;;;;;23.10;9.80;;;7.50;99.90;;;;;;5072475;28;20024;-89
2023/12/09 11:01:16;;;;;;;21.63;9.10;;;7.50;99.90;;;;;;5074295;28;20446;-88
2023/12/09 11:03:42;;;;;;;21.75;9.30;;;7.50;99.90;;;;;;5062808;28;20029;-89
2023/12/09 11:06:09;;;;;;;24.73;9.30;;;7.50;99.90;;;;;;5071393;28;20103;-88
2023/12/09 11:08:38;;;;;;;22.73;9.57;;;7.50;99.90;;;;;;5068352;28;20044;-89
2023/12/09 11:11:05;;;;;;;25.43;9.63;;;7.50;99.90;;;;;;5071354;28;20029;-89
2023/12/09 11:13:35;;;;;;;22.52;10.02;;;7.50;99.90;;;;;;5065617;28;20085;-89
2023/12/09 11:16:14;;;;;;;30.77;10.73;;;7.50;99.90;;;;;;5072735;28;20554;-88
2023/12/09 11:18:51;;;;;;;25.90;10.07;;;7.50;99.90;;;;;;5075041;28;20082;-89
2023/12/09 11:21:18;;;;;;;29.58;11.85;;;7.50;99.90;;;;;;5074075;28;20035;-88
2023/12/09 11:23:50;;;;;;;29.15;10.82;;;7.50;99.90;;;;;;5076128;28;20076;-89
2023/12/09 11:26:32;;;;;;;30.42;11.43;;;7.50;99.90;;;;;;5077901;28;20016;-89
2023/12/09 11:29:05;;;;;;;34.33;12.75;;;7.50;99.90;;;;;;5077346;28;20396;-89
2023/12/09 11:31:32;;;;;;;32.40;12.70;;;7.50;99.90;;;;;;5057213;28;20405;-88
2023/12/09 11:33:59;;;;;;;38.38;12.02;;;7.50;99.90;;;;;;5069542;28;20474;-88
2023/12/09 11:36:28;;;;;;;32.42;11.70;;;7.50;99.90;;;;;;5075824;28;20032;-89
2023/12/09 11:38:54;;;;;;;28.42;11.18;;;7.50;99.90;;;;;;5074660;28;20060;-88
2023/12/09 11:41:20;;;;;;;34.53;12.98;;;7.50;99.90;;;;;;5072030;28;20025;-88
2023/12/09 11:43:47;;;;;;;36.03;13.30;;;7.50;99.90;;;;;;5079462;28;20028;-89
2023/12/09 11:46:13;;;;;;;34.13;11.77;;;7.50;99.90;;;;;;5072352;28;20016;-89
2023/12/09 11:48:39;;;;;;;35.63;12.77;;;7.50;99.90;;;;;;5078014;28;20027;-88
2023/12/09 11:51:06;;;;;;;47.15;13.88;;;7.50;99.90;;;;;;5068776;28;20021;-89
2023/12/09 11:53:32;;;;;;;35.83;12.93;;;7.50;99.90;;;;;;5071833;28;20027;-89
2023/12/09 11:55:58;;;;;;;32.65;13.43;;;7.50;99.90;;;;;;5073771;28;20025;-89
2023/12/09 11:58:24;;;;;;;44.03;14.90;;;7.50;99.90;;;;;;5063532;28;20029;-89
2023/12/09 12:00:50;;;;;;;34.00;13.95;;;7.50;99.90;;;;;;5068404;28;20162;-89
2023/12/09 12:03:15;;;;;;;40.17;15.43;;;7.50;99.90;;;;;;5068899;28;20028;-90
2023/12/09 12:05:41;;;;;;;40.33;14.23;;;7.50;99.90;;;;;;5079238;28;20024;-89
2023/12/09 12:08:07;;;;;;;33.83;14.25;;;7.50;99.90;;;;;;5069716;28;20036;-88
2023/12/09 12:10:33;;;;;;;42.03;14.77;;;7.50;99.90;;;;;;5071715;28;20023;-89
2023/12/09 12:13:01;;;;;;;45.67;13.90;;;7.50;99.90;;;;;;5074515;28;20024;-88
2023/12/09 12:15:26;;;;;;;36.95;13.85;;;7.50;99.90;;;;;;5066711;28;20043;-89
2023/12/09 12:17:53;;;;;;;34.17;13.40;;;7.50;99.90;;;;;;5079522;28;20028;-89
2023/12/09 12:20:19;;;;;;;37.70;13.30;;;7.50;99.90;;;;;;5073814;28;20030;-89
2023/12/09 12:22:45;;;;;;;27.73;12.25;;;7.50;99.90;;;;;;5067944;28;20025;-88
2023/12/09 12:25:10;;;;;;;34.60;12.23;;;7.50;99.90;;;;;;5082490;28;20356;-88
2023/12/09 12:27:39;;;;;;;36.70;13.48;;;7.50;99.90;;;;;;5068819;28;20029;-88
2023/12/09 12:30:06;;;;;;;31.17;12.10;;;7.50;99.90;;;;;;5082065;28;20021;-89
2023/12/09 12:32:37;;;;;;;31.20;13.32;;;7.50;99.90;;;;;;5076334;28;20078;-88
2023/12/09 12:35:07;;;;;;;34.60;13.30;;;7.50;99.90;;;;;;5079164;28;20031;-88
2023/12/09 12:37:33;;;;;;;37.50;13.20;;;7.50;99.90;;;;;;5074786;28;20493;-88
2023/12/09 12:39:58;;;;;;;30.73;13.10;;;7.50;99.90;;;;;;5071194;28;20031;-89